sensor_id;sensor_type;location;lat;lon;timestamp;P1;durP1;ratioP1;P2;durP2;ratioP2
7899;SDS011;3995;50.856;4.404;2024-03-07T00:00:27;6.60;;;5.88;;
7899;SDS011;3995;50.856;4.404;2024-03-07T00:02:56;7.93;;;6.00;;
7899;SDS011;3995;50.856;4.404;2024-03-07T00:05:23;8.57;;;5.57;;
7899;SDS011;3995;50.856;4.404;2024-03-07T00:07:50;8.13;;;6.63;;
7899;SDS011;3995;50.856;4.404;2024-03-07T00:10:17;6.70;;;5.90;;
7899;SDS011;3995;50.856;4.404;2024-03-07T00:12:48;8.57;;;6.83;;
7899;SDS011;3995;50.856;4.404;2024-03-07T00:15:15;8.93;;;6.25;;
7899;SDS011;3995;50.856;4.404;2024-03-07T00:17:42;7.95;;;7.15;;
7899;SDS011;3995;50.856;4.404;2024-03-07T00:20:12;7.80;;;6.80;;
7899;SDS011;3995;50.856;4.404;2024-03-07T00:22:40;7.85;;;7.05;;
7899;SDS011;3995;50.856;4.404;2024-03-07T00:25:09;10.65;;;7.93;;
7899;SDS011;3995;50.856;4.404;2024-03-07T00:27:38;9.05;;;7.95;;
7899;SDS011;3995;50.856;4.404;2024-03-07T00:30:06;11.48;;;7.85;;
7899;SDS011;3995;50.856;4.404;2024-03-07T00:32:34;13.20;;;8.57;;
7899;SDS011;3995;50.856;4.404;2024-03-07T00:35:04;9.73;;;8.63;;
7899;SDS011;3995;50.856;4.404;2024-03-07T00:37:35;14.90;;;10.38;;
7899;SDS011;3995;50.856;4.404;2024-03-07T00:40:02;11.07;;;9.80;;
7899;SDS011;3995;50.856;4.404;2024-03-07T00:42:31;15.73;;;13.85;;
7899;SDS011;3995;50.856;4.404;2024-03-07T00:44:59;16.60;;;14.00;;
7899;SDS011;3995;50.856;4.404;2024-03-07T00:47:26;17.08;;;13.95;;
7899;SDS011;3995;50.856;4.404;2024-03-07T00:49:53;16.95;;;13.65;;
7899;SDS011;3995;50.856;4.404;2024-03-07T00:52:20;17.95;;;14.27;;
7899;SDS011;3995;50.856;4.404;2024-03-07T00:54:49;14.52;;;12.50;;
7899;SDS011;3995;50.856;4.404;2024-03-07T00:57:16;19.70;;;14.05;;
7899;SDS011;3995;50.856;4.404;2024-03-07T00:59:44;19.40;;;14.90;;
7899;SDS011;3995;50.856;4.404;2024-03-07T01:02:11;16.58;;;13.18;;
7899;SDS011;3995;50.856;4.404;2024-03-07T01:04:40;15.98;;;13.45;;
7899;SDS011;3995;50.856;4.404;2024-03-07T01:07:07;23.33;;;14.10;;
7899;SDS011;3995;50.856;4.404;2024-03-07T01:09:34;21.02;;;14.75;;
7899;SDS011;3995;50.856;4.404;2024-03-07T01:12:02;15.73;;;14.03;;
7899;SDS011;3995;50.856;4.404;2024-03-07T01:14:30;19.73;;;14.40;;
7899;SDS011;3995;50.856;4.404;2024-03-07T01:16:58;16.15;;;14.27;;
7899;SDS011;3995;50.856;4.404;2024-03-07T01:19:25;18.88;;;15.00;;
7899;SDS011;3995;50.856;4.404;2024-03-07T01:21:52;17.23;;;14.52;;
7899;SDS011;3995;50.856;4.404;2024-03-07T01:24:19;16.30;;;14.60;;
7899;SDS011;3995;50.856;4.404;2024-03-07T01:26:47;17.70;;;14.95;;
7899;SDS011;3995;50.856;4.404;2024-03-07T01:29:16;20.90;;;16.90;;
7899;SDS011;3995;50.856;4.404;2024-03-07T01:31:44;22.70;;;16.85;;
7899;SDS011;3995;50.856;4.404;2024-03-07T01:34:11;19.00;;;16.75;;
7899;SDS011;3995;50.856;4.404;2024-03-07T01:36:38;17.45;;;15.52;;
7899;SDS011;3995;50.856;4.404;2024-03-07T01:39:04;18.30;;;16.40;;
7899;SDS011;3995;50.856;4.404;2024-03-07T01:41:32;22.57;;;17.57;;
7899;SDS011;3995;50.856;4.404;2024-03-07T01:44:00;19.70;;;15.63;;
7899;SDS011;3995;50.856;4.404;2024-03-07T01:46:28;18.70;;;15.98;;
7899;SDS011;3995;50.856;4.404;2024-03-07T01:48:56;20.38;;;16.40;;
7899;SDS011;3995;50.856;4.404;2024-03-07T01:51:23;21.77;;;16.42;;
7899;SDS011;3995;50.856;4.404;2024-03-07T01:53:51;19.23;;;16.70;;
7899;SDS011;3995;50.856;4.404;2024-03-07T01:56:18;21.20;;;18.20;;
7899;SDS011;3995;50.856;4.404;2024-03-07T01:58:47;21.00;;;18.05;;
7899;SDS011;3995;50.856;4.404;2024-03-07T02:01:18;26.70;;;18.65;;
7899;SDS011;3995;50.856;4.404;2024-03-07T02:03:46;22.95;;;19.20;;
7899;SDS011;3995;50.856;4.404;2024-03-07T02:06:14;20.90;;;17.05;;
7899;SDS011;3995;50.856;4.404;2024-03-07T02:08:41;21.50;;;19.08;;
7899;SDS011;3995;50.856;4.404;2024-03-07T02:11:08;21.52;;;18.40;;
7899;SDS011;3995;50.856;4.404;2024-03-07T02:13:35;20.95;;;16.33;;
7899;SDS011;3995;50.856;4.404;2024-03-07T02:16:03;25.23;;;19.05;;
7899;SDS011;3995;50.856;4.404;2024-03-07T02:18:30;22.98;;;18.77;;
7899;SDS011;3995;50.856;4.404;2024-03-07T02:20:58;22.00;;;19.50;;
7899;SDS011;3995;50.856;4.404;2024-03-07T02:23:26;22.52;;;19.85;;
7899;SDS011;3995;50.856;4.404;2024-03-07T02:25:53;25.08;;;20.55;;
7899;SDS011;3995;50.856;4.404;2024-03-07T02:28:20;22.52;;;20.02;;
7899;SDS011;3995;50.856;4.404;2024-03-07T02:30:47;23.42;;;20.40;;
7899;SDS011;3995;50.856;4.404;2024-03-07T02:33:14;23.83;;;20.25;;
7899;SDS011;3995;50.856;4.404;2024-03-07T02:35:41;29.05;;;22.00;;
7899;SDS011;3995;50.856;4.404;2024-03-07T02:38:10;25.73;;;22.05;;
7899;SDS011;3995;50.856;4.404;2024-03-07T02:40:37;26.50;;;21.63;;
7899;SDS011;3995;50.856;4.404;2024-03-07T02:43:04;25.45;;;21.30;;
7899;SDS011;3995;50.856;4.404;2024-03-07T02:45:32;27.27;;;22.67;;
7899;SDS011;3995;50.856;4.404;2024-03-07T02:47:59;24.83;;;22.30;;
7899;SDS011;3995;50.856;4.404;2024-03-07T02:50:26;29.70;;;23.00;;
7899;SDS011;3995;50.856;4.404;2024-03-07T02:52:53;29.48;;;24.88;;
7899;SDS011;3995;50.856;4.404;2024-03-07T02:55:22;33.03;;;24.77;;
7899;SDS011;3995;50.856;4.404;2024-03-07T02:57:49;26.83;;;23.45;;
7899;SDS011;3995;50.856;4.404;2024-03-07T03:00:17;25.33;;;22.58;;
7899;SDS011;3995;50.856;4.404;2024-03-07T03:02:52;26.80;;;23.33;;
7899;SDS011;3995;50.856;4.404;2024-03-07T03:05:19;26.60;;;23.27;;
7899;SDS011;3995;50.856;4.404;2024-03-07T03:07:46;28.30;;;23.65;;
7899;SDS011;3995;50.856;4.404;2024-03-07T03:10:19;25.95;;;22.33;;
7899;SDS011;3995;50.856;4.404;2024-03-07T03:12:51;29.42;;;24.75;;
7899;SDS011;3995;50.856;4.404;2024-03-07T03:15:19;26.70;;;23.80;;
7899;SDS011;3995;50.856;4.404;2024-03-07T03:17:46;29.10;;;24.67;;
7899;SDS011;3995;50.856;4.404;2024-03-07T03:20:14;27.95;;;24.95;;
7899;SDS011;3995;50.856;4.404;2024-03-07T03:22:50;28.95;;;25.52;;
7899;SDS011;3995;50.856;4.404;2024-03-07T03:25:18;30.70;;;26.40;;
7899;SDS011;3995;50.856;4.404;2024-03-07T03:27:47;37.65;;;28.55;;
7899;SDS011;3995;50.856;4.404;2024-03-07T03:30:14;30.38;;;25.80;;
7899;SDS011;3995;50.856;4.404;2024-03-07T03:32:43;30.10;;;26.67;;
7899;SDS011;3995;50.856;4.404;2024-03-07T03:35:11;32.22;;;26.92;;
7899;SDS011;3995;50.856;4.404;2024-03-07T03:37:39;33.38;;;26.15;;
7899;SDS011;3995;50.856;4.404;2024-03-07T03:40:08;31.90;;;26.05;;
7899;SDS011;3995;50.856;4.404;2024-03-07T03:42:35;30.63;;;26.38;;
7899;SDS011;3995;50.856;4.404;2024-03-07T03:45:05;29.48;;;25.50;;
7899;SDS011;3995;50.856;4.404;2024-03-07T03:47:33;30.75;;;26.33;;
7899;SDS011;3995;50.856;4.404;2024-03-07T03:50:02;30.48;;;25.23;;
7899;SDS011;3995;50.856;4.404;2024-03-07T03:52:30;34.92;;;24.63;;
7899;SDS011;3995;50.856;4.404;2024-03-07T03:54:57;29.45;;;25.30;;
7899;SDS011;3995;50.856;4.404;2024-03-07T03:57:24;32.28;;;26.67;;
7899;SDS011;3995;50.856;4.404;2024-03-07T03:59:52;31.25;;;27.40;;
7899;SDS011;3995;50.856;4.404;2024-03-07T04:02:21;33.40;;;27.58;;
7899;SDS011;3995;50.856;4.404;2024-03-07T04:04:48;30.45;;;27.08;;
7899;SDS011;3995;50.856;4.404;2024-03-07T04:07:15;30.85;;;26.60;;
7899;SDS011;3995;50.856;4.404;2024-03-07T04:09:42;32.88;;;26.23;;
7899;SDS011;3995;50.856;4.404;2024-03-07T04:12:09;29.33;;;26.05;;
7899;SDS011;3995;50.856;4.404;2024-03-07T04:14:37;28.77;;;25.67;;
7899;SDS011;3995;50.856;4.404;2024-03-07T04:17:06;34.72;;;27.77;;
7899;SDS011;3995;50.856;4.404;2024-03-07T04:19:35;31.13;;;27.30;;
7899;SDS011;3995;50.856;4.404;2024-03-07T04:22:03;30.98;;;25.38;;
7899;SDS011;3995;50.856;4.404;2024-03-07T04:24:30;31.90;;;27.40;;
7899;SDS011;3995;50.856;4.404;2024-03-07T04:26:58;31.88;;;27.17;;
7899;SDS011;3995;50.856;4.404;2024-03-07T04:29:26;32.15;;;25.77;;
7899;SDS011;3995;50.856;4.404;2024-03-07T04:31:53;30.83;;;26.80;;
7899;SDS011;3995;50.856;4.404;2024-03-07T04:34:20;33.10;;;27.27;;
7899;SDS011;3995;50.856;4.404;2024-03-07T04:36:49;32.13;;;27.42;;
7899;SDS011;3995;50.856;4.404;2024-03-07T04:39:16;31.73;;;27.45;;
7899;SDS011;3995;50.856;4.404;2024-03-07T04:41:51;32.10;;;26.58;;
7899;SDS011;3995;50.856;4.404;2024-03-07T04:44:18;33.30;;;27.85;;
7899;SDS011;3995;50.856;4.404;2024-03-07T04:46:47;29.45;;;26.30;;
7899;SDS011;3995;50.856;4.404;2024-03-07T04:49:16;28.75;;;25.38;;
7899;SDS011;3995;50.856;4.404;2024-03-07T04:51:43;28.45;;;25.05;;
7899;SDS011;3995;50.856;4.404;2024-03-07T04:54:11;32.03;;;28.17;;
7899;SDS011;3995;50.856;4.404;2024-03-07T04:56:39;28.60;;;25.45;;
7899;SDS011;3995;50.856;4.404;2024-03-07T04:59:06;29.80;;;26.55;;
7899;SDS011;3995;50.856;4.404;2024-03-07T05:01:33;33.70;;;26.80;;
7899;SDS011;3995;50.856;4.404;2024-03-07T05:04:00;33.58;;;28.70;;
7899;SDS011;3995;50.856;4.404;2024-03-07T05:06:28;37.45;;;31.00;;
7899;SDS011;3995;50.856;4.404;2024-03-07T05:08:57;36.15;;;29.35;;
7899;SDS011;3995;50.856;4.404;2024-03-07T05:11:26;39.72;;;28.67;;
7899;SDS011;3995;50.856;4.404;2024-03-07T05:13:53;36.53;;;30.92;;
7899;SDS011;3995;50.856;4.404;2024-03-07T05:16:20;39.95;;;30.70;;
7899;SDS011;3995;50.856;4.404;2024-03-07T05:18:47;43.35;;;30.95;;
7899;SDS011;3995;50.856;4.404;2024-03-07T05:21:15;41.75;;;31.88;;
7899;SDS011;3995;50.856;4.404;2024-03-07T05:24:03;47.47;;;35.47;;
7899;SDS011;3995;50.856;4.404;2024-03-07T05:26:32;39.53;;;31.70;;
7899;SDS011;3995;50.856;4.404;2024-03-07T05:29:02;39.92;;;32.58;;
7899;SDS011;3995;50.856;4.404;2024-03-07T05:31:32;41.90;;;33.30;;
7899;SDS011;3995;50.856;4.404;2024-03-07T05:34:00;45.53;;;34.95;;
7899;SDS011;3995;50.856;4.404;2024-03-07T05:36:30;42.15;;;32.55;;
7899;SDS011;3995;50.856;4.404;2024-03-07T05:38:57;45.63;;;33.55;;
7899;SDS011;3995;50.856;4.404;2024-03-07T05:41:26;46.45;;;35.45;;
7899;SDS011;3995;50.856;4.404;2024-03-07T05:43:56;43.95;;;35.90;;
7899;SDS011;3995;50.856;4.404;2024-03-07T05:46:23;45.70;;;33.90;;
7899;SDS011;3995;50.856;4.404;2024-03-07T05:48:50;42.47;;;33.78;;
7899;SDS011;3995;50.856;4.404;2024-03-07T05:51:21;43.63;;;33.30;;
7899;SDS011;3995;50.856;4.404;2024-03-07T05:53:48;48.70;;;34.72;;
7899;SDS011;3995;50.856;4.404;2024-03-07T05:56:15;45.97;;;34.35;;
7899;SDS011;3995;50.856;4.404;2024-03-07T05:58:42;46.53;;;34.80;;
7899;SDS011;3995;50.856;4.404;2024-03-07T06:01:11;44.67;;;34.35;;
7899;SDS011;3995;50.856;4.404;2024-03-07T06:03:39;44.42;;;34.10;;
7899;SDS011;3995;50.856;4.404;2024-03-07T06:06:06;45.50;;;35.28;;
7899;SDS011;3995;50.856;4.404;2024-03-07T06:08:36;42.72;;;32.13;;
7899;SDS011;3995;50.856;4.404;2024-03-07T06:11:03;42.10;;;33.22;;
7899;SDS011;3995;50.856;4.404;2024-03-07T06:13:31;47.03;;;35.35;;
7899;SDS011;3995;50.856;4.404;2024-03-07T06:15:58;42.78;;;34.10;;
7899;SDS011;3995;50.856;4.404;2024-03-07T06:18:30;45.72;;;33.20;;
7899;SDS011;3995;50.856;4.404;2024-03-07T06:20:57;41.15;;;33.08;;
7899;SDS011;3995;50.856;4.404;2024-03-07T06:23:25;42.35;;;33.22;;
7899;SDS011;3995;50.856;4.404;2024-03-07T06:25:53;46.33;;;33.53;;
7899;SDS011;3995;50.856;4.404;2024-03-07T06:28:23;42.38;;;34.10;;
7899;SDS011;3995;50.856;4.404;2024-03-07T06:30:52;50.28;;;33.42;;
7899;SDS011;3995;50.856;4.404;2024-03-07T06:33:19;46.40;;;33.47;;
7899;SDS011;3995;50.856;4.404;2024-03-07T06:35:48;47.70;;;31.02;;
7899;SDS011;3995;50.856;4.404;2024-03-07T06:38:16;45.33;;;32.45;;
7899;SDS011;3995;50.856;4.404;2024-03-07T06:40:43;40.80;;;31.20;;
7899;SDS011;3995;50.856;4.404;2024-03-07T06:43:10;41.78;;;32.88;;
7899;SDS011;3995;50.856;4.404;2024-03-07T06:45:37;51.40;;;33.03;;
7899;SDS011;3995;50.856;4.404;2024-03-07T06:48:06;42.15;;;32.08;;
7899;SDS011;3995;50.856;4.404;2024-03-07T06:50:34;42.58;;;32.17;;
7899;SDS011;3995;50.856;4.404;2024-03-07T06:53:03;48.15;;;33.15;;
7899;SDS011;3995;50.856;4.404;2024-03-07T06:55:32;42.33;;;32.80;;
7899;SDS011;3995;50.856;4.404;2024-03-07T06:58:00;42.97;;;33.42;;
7899;SDS011;3995;50.856;4.404;2024-03-07T07:00:29;42.30;;;31.75;;
7899;SDS011;3995;50.856;4.404;2024-03-07T07:03:00;48.55;;;32.38;;
7899;SDS011;3995;50.856;4.404;2024-03-07T07:05:30;43.90;;;32.60;;
7899;SDS011;3995;50.856;4.404;2024-03-07T07:07:57;43.58;;;31.83;;
7899;SDS011;3995;50.856;4.404;2024-03-07T07:10:26;40.75;;;31.70;;
7899;SDS011;3995;50.856;4.404;2024-03-07T07:12:53;43.25;;;32.72;;
7899;SDS011;3995;50.856;4.404;2024-03-07T07:15:20;47.20;;;32.33;;
7899;SDS011;3995;50.856;4.404;2024-03-07T07:17:48;40.20;;;31.30;;
7899;SDS011;3995;50.856;4.404;2024-03-07T07:20:16;41.80;;;31.48;;
7899;SDS011;3995;50.856;4.404;2024-03-07T07:22:43;40.45;;;31.48;;
7899;SDS011;3995;50.856;4.404;2024-03-07T07:25:12;42.92;;;31.85;;
7899;SDS011;3995;50.856;4.404;2024-03-07T07:27:42;39.50;;;29.92;;
7899;SDS011;3995;50.856;4.404;2024-03-07T07:30:11;37.88;;;29.95;;
7899;SDS011;3995;50.856;4.404;2024-03-07T07:32:39;42.15;;;30.50;;
7899;SDS011;3995;50.856;4.404;2024-03-07T07:35:08;47.53;;;31.95;;
7899;SDS011;3995;50.856;4.404;2024-03-07T07:37:37;43.35;;;31.15;;
7899;SDS011;3995;50.856;4.404;2024-03-07T07:40:05;48.25;;;33.47;;
7899;SDS011;3995;50.856;4.404;2024-03-07T07:42:34;42.08;;;30.38;;
7899;SDS011;3995;50.856;4.404;2024-03-07T07:45:06;41.92;;;32.15;;
7899;SDS011;3995;50.856;4.404;2024-03-07T07:47:36;40.65;;;30.98;;
7899;SDS011;3995;50.856;4.404;2024-03-07T07:50:06;40.55;;;30.02;;
7899;SDS011;3995;50.856;4.404;2024-03-07T07:52:39;45.67;;;32.15;;
7899;SDS011;3995;50.856;4.404;2024-03-07T07:55:07;44.03;;;31.30;;
7899;SDS011;3995;50.856;4.404;2024-03-07T07:57:40;53.45;;;31.42;;
7899;SDS011;3995;50.856;4.404;2024-03-07T08:00:10;47.03;;;31.15;;
7899;SDS011;3995;50.856;4.404;2024-03-07T08:02:46;42.38;;;31.48;;
7899;SDS011;3995;50.856;4.404;2024-03-07T08:05:15;47.53;;;31.42;;
7899;SDS011;3995;50.856;4.404;2024-03-07T08:07:43;49.72;;;30.77;;
7899;SDS011;3995;50.856;4.404;2024-03-07T08:10:10;46.33;;;31.55;;
7899;SDS011;3995;50.856;4.404;2024-03-07T08:12:37;45.13;;;32.42;;
7899;SDS011;3995;50.856;4.404;2024-03-07T08:15:06;58.30;;;32.75;;
7899;SDS011;3995;50.856;4.404;2024-03-07T08:17:40;43.92;;;32.65;;
7899;SDS011;3995;50.856;4.404;2024-03-07T08:20:10;50.78;;;32.88;;
7899;SDS011;3995;50.856;4.404;2024-03-07T08:22:38;50.13;;;32.95;;
7899;SDS011;3995;50.856;4.404;2024-03-07T08:25:07;47.90;;;31.95;;
7899;SDS011;3995;50.856;4.404;2024-03-07T08:27:35;50.58;;;32.72;;
7899;SDS011;3995;50.856;4.404;2024-03-07T08:30:04;47.40;;;33.40;;
7899;SDS011;3995;50.856;4.404;2024-03-07T08:32:32;61.88;;;34.22;;
7899;SDS011;3995;50.856;4.404;2024-03-07T08:35:03;61.83;;;33.90;;
7899;SDS011;3995;50.856;4.404;2024-03-07T08:37:34;75.53;;;33.63;;
7899;SDS011;3995;50.856;4.404;2024-03-07T08:40:02;77.57;;;35.05;;
7899;SDS011;3995;50.856;4.404;2024-03-07T08:42:31;95.20;;;35.55;;
7899;SDS011;3995;50.856;4.404;2024-03-07T08:44:59;55.05;;;31.80;;
7899;SDS011;3995;50.856;4.404;2024-03-07T08:47:27;47.38;;;30.63;;
7899;SDS011;3995;50.856;4.404;2024-03-07T08:49:55;71.55;;;32.70;;
7899;SDS011;3995;50.856;4.404;2024-03-07T08:52:24;54.65;;;30.52;;
7899;SDS011;3995;50.856;4.404;2024-03-07T08:54:51;94.75;;;36.22;;
7899;SDS011;3995;50.856;4.404;2024-03-07T08:57:19;40.65;;;29.45;;
7899;SDS011;3995;50.856;4.404;2024-03-07T08:59:47;55.88;;;28.92;;
7899;SDS011;3995;50.856;4.404;2024-03-07T09:02:14;97.05;;;35.88;;
7899;SDS011;3995;50.856;4.404;2024-03-07T09:04:42;96.82;;;37.17;;
7899;SDS011;3995;50.856;4.404;2024-03-07T09:07:09;98.75;;;34.00;;
7899;SDS011;3995;50.856;4.404;2024-03-07T09:09:38;41.78;;;29.02;;
7899;SDS011;3995;50.856;4.404;2024-03-07T09:12:05;64.38;;;31.15;;
7899;SDS011;3995;50.856;4.404;2024-03-07T09:14:33;62.15;;;29.55;;
7899;SDS011;3995;50.856;4.404;2024-03-07T09:17:00;45.50;;;28.27;;
7899;SDS011;3995;50.856;4.404;2024-03-07T09:19:29;35.72;;;27.45;;
7899;SDS011;3995;50.856;4.404;2024-03-07T09:21:56;42.00;;;29.05;;
7899;SDS011;3995;50.856;4.404;2024-03-07T09:24:25;41.78;;;28.63;;
7899;SDS011;3995;50.856;4.404;2024-03-07T09:26:54;42.65;;;29.35;;
7899;SDS011;3995;50.856;4.404;2024-03-07T09:29:22;37.75;;;28.00;;
7899;SDS011;3995;50.856;4.404;2024-03-07T09:31:49;42.65;;;29.15;;
7899;SDS011;3995;50.856;4.404;2024-03-07T09:34:18;38.22;;;28.58;;
7899;SDS011;3995;50.856;4.404;2024-03-07T09:36:46;41.70;;;28.70;;
7899;SDS011;3995;50.856;4.404;2024-03-07T09:39:14;38.45;;;31.30;;
7899;SDS011;3995;50.856;4.404;2024-03-07T09:41:41;43.47;;;30.00;;
7899;SDS011;3995;50.856;4.404;2024-03-07T09:44:10;41.80;;;29.10;;
7899;SDS011;3995;50.856;4.404;2024-03-07T09:46:41;42.45;;;29.70;;
7899;SDS011;3995;50.856;4.404;2024-03-07T09:49:11;35.58;;;28.65;;
7899;SDS011;3995;50.856;4.404;2024-03-07T09:51:39;38.38;;;29.15;;
7899;SDS011;3995;50.856;4.404;2024-03-07T09:54:07;49.60;;;29.08;;
7899;SDS011;3995;50.856;4.404;2024-03-07T09:56:35;38.70;;;27.73;;
7899;SDS011;3995;50.856;4.404;2024-03-07T09:59:03;34.97;;;29.00;;
7899;SDS011;3995;50.856;4.404;2024-03-07T10:01:33;35.92;;;29.88;;
7899;SDS011;3995;50.856;4.404;2024-03-07T10:04:02;38.13;;;29.00;;
7899;SDS011;3995;50.856;4.404;2024-03-07T10:06:36;40.20;;;30.25;;
7899;SDS011;3995;50.856;4.404;2024-03-07T10:09:04;35.90;;;30.33;;
7899;SDS011;3995;50.856;4.404;2024-03-07T10:11:32;35.78;;;28.90;;
7899;SDS011;3995;50.856;4.404;2024-03-07T10:14:02;34.78;;;28.38;;
7899;SDS011;3995;50.856;4.404;2024-03-07T10:16:31;36.13;;;28.13;;
7899;SDS011;3995;50.856;4.404;2024-03-07T10:18:59;36.25;;;28.52;;
7899;SDS011;3995;50.856;4.404;2024-03-07T10:21:30;40.03;;;29.67;;
7899;SDS011;3995;50.856;4.404;2024-03-07T10:24:05;42.28;;;29.15;;
7899;SDS011;3995;50.856;4.404;2024-03-07T10:26:34;34.85;;;27.58;;
7899;SDS011;3995;50.856;4.404;2024-03-07T10:29:03;38.60;;;29.30;;
7899;SDS011;3995;50.856;4.404;2024-03-07T10:31:32;37.97;;;28.88;;
7899;SDS011;3995;50.856;4.404;2024-03-07T10:34:03;38.25;;;28.65;;
7899;SDS011;3995;50.856;4.404;2024-03-07T10:36:31;36.40;;;28.02;;
7899;SDS011;3995;50.856;4.404;2024-03-07T10:38:59;36.03;;;28.60;;
7899;SDS011;3995;50.856;4.404;2024-03-07T10:41:39;38.08;;;28.27;;
7899;SDS011;3995;50.856;4.404;2024-03-07T10:44:11;35.00;;;27.63;;
7899;SDS011;3995;50.856;4.404;2024-03-07T10:46:46;35.13;;;28.38;;
7899;SDS011;3995;50.856;4.404;2024-03-07T10:49:20;34.97;;;27.17;;
7899;SDS011;3995;50.856;4.404;2024-03-07T10:51:52;35.13;;;26.40;;
7899;SDS011;3995;50.856;4.404;2024-03-07T10:54:30;27.73;;;24.73;;
7899;SDS011;3995;50.856;4.404;2024-03-07T10:57:15;37.08;;;26.98;;
7899;SDS011;3995;50.856;4.404;2024-03-07T10:59:49;36.28;;;28.83;;
7899;SDS011;3995;50.856;4.404;2024-03-07T11:02:20;35.92;;;27.63;;
7899;SDS011;3995;50.856;4.404;2024-03-07T11:04:59;35.60;;;27.08;;
7899;SDS011;3995;50.856;4.404;2024-03-07T11:07:27;34.85;;;28.05;;
7899;SDS011;3995;50.856;4.404;2024-03-07T11:09:55;35.22;;;27.45;;
7899;SDS011;3995;50.856;4.404;2024-03-07T11:12:24;38.00;;;25.70;;
7899;SDS011;3995;50.856;4.404;2024-03-07T11:14:53;33.35;;;25.02;;
7899;SDS011;3995;50.856;4.404;2024-03-07T11:17:22;29.37;;;24.73;;
7899;SDS011;3995;50.856;4.404;2024-03-07T11:19:50;34.97;;;25.17;;
7899;SDS011;3995;50.856;4.404;2024-03-07T11:22:31;31.10;;;24.20;;
7899;SDS011;3995;50.856;4.404;2024-03-07T11:25:02;30.83;;;23.95;;
7899;SDS011;3995;50.856;4.404;2024-03-07T11:27:32;35.10;;;23.73;;
7899;SDS011;3995;50.856;4.404;2024-03-07T11:30:04;26.42;;;21.60;;
7899;SDS011;3995;50.856;4.404;2024-03-07T11:32:34;35.40;;;23.08;;
7899;SDS011;3995;50.856;4.404;2024-03-07T11:35:03;26.63;;;21.83;;
7899;SDS011;3995;50.856;4.404;2024-03-07T11:37:41;31.35;;;23.85;;
7899;SDS011;3995;50.856;4.404;2024-03-07T11:40:11;26.20;;;21.90;;
7899;SDS011;3995;50.856;4.404;2024-03-07T11:42:45;26.70;;;20.48;;
7899;SDS011;3995;50.856;4.404;2024-03-07T11:45:13;27.30;;;21.20;;
7899;SDS011;3995;50.856;4.404;2024-03-07T11:47:50;26.45;;;18.45;;
7899;SDS011;3995;50.856;4.404;2024-03-07T11:50:23;22.00;;;17.67;;
7899;SDS011;3995;50.856;4.404;2024-03-07T11:52:52;26.05;;;20.25;;
7899;SDS011;3995;50.856;4.404;2024-03-07T11:55:20;21.10;;;17.70;;
7899;SDS011;3995;50.856;4.404;2024-03-07T11:57:47;22.40;;;18.80;;
7899;SDS011;3995;50.856;4.404;2024-03-07T12:00:16;25.65;;;18.92;;
7899;SDS011;3995;50.856;4.404;2024-03-07T12:02:45;21.02;;;17.48;;
7899;SDS011;3995;50.856;4.404;2024-03-07T12:05:13;21.87;;;18.90;;
7899;SDS011;3995;50.856;4.404;2024-03-07T12:07:41;26.30;;;18.93;;
7899;SDS011;3995;50.856;4.404;2024-03-07T12:10:11;22.87;;;17.60;;
7899;SDS011;3995;50.856;4.404;2024-03-07T12:12:39;21.63;;;18.70;;
7899;SDS011;3995;50.856;4.404;2024-03-07T12:15:07;20.60;;;17.97;;
7899;SDS011;3995;50.856;4.404;2024-03-07T12:17:43;23.13;;;18.47;;
7899;SDS011;3995;50.856;4.404;2024-03-07T12:20:11;21.03;;;18.77;;
7899;SDS011;3995;50.856;4.404;2024-03-07T12:22:54;21.60;;;17.00;;
7899;SDS011;3995;50.856;4.404;2024-03-07T12:25:24;24.17;;;20.53;;
7899;SDS011;3995;50.856;4.404;2024-03-07T12:28:04;28.40;;;21.30;;
7899;SDS011;3995;50.856;4.404;2024-03-07T12:30:36;24.13;;;18.63;;
7899;SDS011;3995;50.856;4.404;2024-03-07T12:33:14;23.30;;;19.10;;
7899;SDS011;3995;50.856;4.404;2024-03-07T12:35:43;21.37;;;17.70;;
7899;SDS011;3995;50.856;4.404;2024-03-07T12:38:11;20.57;;;18.17;;
7899;SDS011;3995;50.856;4.404;2024-03-07T12:40:42;30.40;;;19.33;;
7899;SDS011;3995;50.856;4.404;2024-03-07T12:43:17;23.23;;;17.80;;
7899;SDS011;3995;50.856;4.404;2024-03-07T12:45:47;23.70;;;19.93;;
7899;SDS011;3995;50.856;4.404;2024-03-07T12:48:15;21.67;;;18.63;;
7899;SDS011;3995;50.856;4.404;2024-03-07T12:50:45;23.70;;;19.07;;
7899;SDS011;3995;50.856;4.404;2024-03-07T12:53:12;23.23;;;18.30;;
7899;SDS011;3995;50.856;4.404;2024-03-07T12:55:39;22.95;;;18.65;;
7899;SDS011;3995;50.856;4.404;2024-03-07T12:58:09;25.83;;;19.97;;
7899;SDS011;3995;50.856;4.404;2024-03-07T13:00:37;23.60;;;18.57;;
7899;SDS011;3995;50.856;4.404;2024-03-07T13:03:06;23.20;;;17.73;;
7899;SDS011;3995;50.856;4.404;2024-03-07T13:05:34;27.13;;;19.23;;
7899;SDS011;3995;50.856;4.404;2024-03-07T13:08:05;21.37;;;19.13;;
7899;SDS011;3995;50.856;4.404;2024-03-07T13:10:36;21.53;;;18.87;;
7899;SDS011;3995;50.856;4.404;2024-03-07T13:13:05;23.38;;;17.92;;
7899;SDS011;3995;50.856;4.404;2024-03-07T13:15:36;20.90;;;18.60;;
7899;SDS011;3995;50.856;4.404;2024-03-07T13:18:04;27.00;;;21.13;;
7899;SDS011;3995;50.856;4.404;2024-03-07T13:20:31;22.43;;;19.43;;
7899;SDS011;3995;50.856;4.404;2024-03-07T13:22:58;34.23;;;21.77;;
7899;SDS011;3995;50.856;4.404;2024-03-07T13:25:26;20.67;;;17.60;;
7899;SDS011;3995;50.856;4.404;2024-03-07T13:27:56;24.17;;;18.53;;
7899;SDS011;3995;50.856;4.404;2024-03-07T13:30:27;25.03;;;21.00;;
7899;SDS011;3995;50.856;4.404;2024-03-07T13:32:56;22.87;;;19.57;;
7899;SDS011;3995;50.856;4.404;2024-03-07T13:35:24;21.07;;;18.70;;
7899;SDS011;3995;50.856;4.404;2024-03-07T13:37:52;22.52;;;17.80;;
7899;SDS011;3995;50.856;4.404;2024-03-07T13:40:20;20.83;;;18.23;;
7899;SDS011;3995;50.856;4.404;2024-03-07T13:42:51;19.70;;;17.60;;
7899;SDS011;3995;50.856;4.404;2024-03-07T13:45:20;19.00;;;16.90;;
7899;SDS011;3995;50.856;4.404;2024-03-07T13:47:48;26.65;;;17.60;;
7899;SDS011;3995;50.856;4.404;2024-03-07T13:50:19;23.07;;;18.13;;
7899;SDS011;3995;50.856;4.404;2024-03-07T13:52:49;21.03;;;16.93;;
7899;SDS011;3995;50.856;4.404;2024-03-07T13:55:47;18.87;;;16.87;;
7899;SDS011;3995;50.856;4.404;2024-03-07T14:01:17;20.30;;;15.73;;
7899;SDS011;3995;50.856;4.404;2024-03-07T14:06:57;23.27;;;15.50;;
7899;SDS011;3995;50.856;4.404;2024-03-07T14:09:49;23.25;;;16.58;;
7899;SDS011;3995;50.856;4.404;2024-03-07T14:12:34;23.87;;;15.83;;
7899;SDS011;3995;50.856;4.404;2024-03-07T14:28:01;20.33;;;14.40;;
7899;SDS011;3995;50.856;4.404;2024-03-07T14:30:40;16.00;;;13.43;;
7899;SDS011;3995;50.856;4.404;2024-03-07T14:33:11;19.92;;;13.88;;
7899;SDS011;3995;50.856;4.404;2024-03-07T14:41:18;23.50;;;15.27;;
7899;SDS011;3995;50.856;4.404;2024-03-07T14:43:44;21.15;;;15.30;;
7899;SDS011;3995;50.856;4.404;2024-03-07T14:46:12;18.10;;;15.60;;
7899;SDS011;3995;50.856;4.404;2024-03-07T14:48:41;26.27;;;15.93;;
7899;SDS011;3995;50.856;4.404;2024-03-07T14:51:09;18.67;;;14.13;;
7899;SDS011;3995;50.856;4.404;2024-03-07T14:53:38;18.17;;;13.77;;
7899;SDS011;3995;50.856;4.404;2024-03-07T14:56:06;15.50;;;13.70;;
7899;SDS011;3995;50.856;4.404;2024-03-07T14:58:37;20.50;;;14.23;;
7899;SDS011;3995;50.856;4.404;2024-03-07T15:01:04;16.60;;;12.40;;
7899;SDS011;3995;50.856;4.404;2024-03-07T15:03:32;18.65;;;13.57;;
7899;SDS011;3995;50.856;4.404;2024-03-07T15:06:00;15.80;;;13.75;;
7899;SDS011;3995;50.856;4.404;2024-03-07T15:08:27;17.10;;;14.25;;
7899;SDS011;3995;50.856;4.404;2024-03-07T15:10:55;14.33;;;12.47;;
7899;SDS011;3995;50.856;4.404;2024-03-07T15:13:28;15.20;;;12.82;;
7899;SDS011;3995;50.856;4.404;2024-03-07T15:15:57;17.88;;;13.75;;
7899;SDS011;3995;50.856;4.404;2024-03-07T15:18:24;14.77;;;13.20;;
7899;SDS011;3995;50.856;4.404;2024-03-07T15:20:53;14.83;;;12.97;;
7899;SDS011;3995;50.856;4.404;2024-03-07T15:23:20;19.55;;;13.85;;